Time;durP1;ratioP1;P1;durP2;ratioP2;P2;SDS_P1;SDS_P2;PMS_P1;PMS_P2;Temp;Humidity;BMP_temperature;BMP_pressure;BME280_temperature;BME280_humidity;BME280_pressure;Samples;Min_cycle;Max_cycle;Signal;HPM_P1;HPM_P2
2023/06/04 00:00:50;;;;;;;5.45;2.45;;;;;;;13.10;68.94;101989.75;4988358;28;20031;-60
2023/06/04 00:03:16;;;;;;;4.43;2.60;;;;;;;13.09;68.88;101988.91;4988140;28;20029;-60
2023/06/04 00:05:42;;;;;;;3.95;2.30;;;;;;;13.08;69.67;101986.19;4987976;28;20045;-60
2023/06/04 00:08:07;;;;;;;4.40;2.42;;;;;;;13.07;70.57;101981.84;4988302;28;20467;-60
2023/06/04 00:10:33;;;;;;;2.47;2.00;;;;;;;13.08;69.35;101981.91;4987623;28;20040;-60
2023/06/04 00:12:59;;;;;;;2.80;2.40;;;;;;;13.09;70.29;101988.00;4987622;28;20602;-59
2023/06/04 00:15:24;;;;;;;4.40;2.08;;;;;;;13.09;69.92;101977.59;4988222;28;20074;-59
2023/06/04 00:17:50;;;;;;;4.50;2.33;;;;;;;13.07;70.26;101971.44;4987942;28;20064;-60
2023/06/04 00:20:15;;;;;;;3.70;2.10;;;;;;;13.10;70.52;101979.34;4988007;28;20042;-61
2023/06/04 00:22:41;;;;;;;3.28;2.17;;;;;;;13.09;70.16;101978.47;4987395;28;20439;-60
2023/06/04 00:25:08;;;;;;;2.30;1.83;;;;;;;13.07;70.95;101974.03;4987590;28;20026;-61
2023/06/04 00:27:33;;;;;;;3.83;2.03;;;;;;;13.04;72.15;101979.97;4988179;28;20513;-61
2023/06/04 00:29:58;;;;;;;2.75;2.10;;;;;;;13.02;71.60;101975.56;4988014;28;20030;-59
2023/06/04 00:32:23;;;;;;;4.47;1.70;;;;;;;13.02;72.27;101970.34;4987753;28;20402;-60
2023/06/04 00:34:52;;;;;;;2.15;1.80;;;;;;;12.95;72.88;101970.09;4986937;28;20066;-60
2023/06/04 00:37:17;;;;;;;2.63;1.80;;;;;;;12.93;73.44;101971.75;4987886;28;20032;-60
2023/06/04 00:39:43;;;;;;;2.70;1.83;;;;;;;12.92;74.46;101980.38;4987488;28;20481;-61
2023/06/04 00:42:08;;;;;;;1.50;1.23;;;;;;;12.87;74.54;101981.03;4987226;28;20022;-60
2023/06/04 00:44:34;;;;;;;2.55;1.70;;;;;;;12.82;75.39;101975.66;4988076;28;20026;-60
2023/06/04 00:47:00;;;;;;;3.15;1.23;;;;;;;12.79;75.47;101973.78;4987597;28;20105;-59
2023/06/04 00:49:25;;;;;;;1.33;1.13;;;;;;;12.73;75.86;101966.66;4987986;28;20521;-60
2023/06/04 00:51:50;;;;;;;3.17;1.40;;;;;;;12.75;76.01;101968.41;4987327;28;20033;-60
2023/06/04 00:54:17;;;;;;;2.80;1.70;;;;;;;12.68;76.65;101964.69;4987983;28;20037;-59
2023/06/04 00:56:44;;;;;;;2.15;1.60;;;;;;;12.64;76.81;101958.47;4988043;28;20030;-60
2023/06/04 00:59:10;;;;;;;2.97;1.25;;;;;;;12.60;78.15;101967.84;4991953;28;20355;-60
2023/06/04 01:01:59;;;;;;;2.78;1.65;;;;;;;12.59;78.39;101970.38;4990909;28;20037;-61
2023/06/04 01:04:33;;;;;;;1.67;1.35;;;;;;;12.56;78.59;101965.03;4991614;28;20062;-60
2023/06/04 01:07:02;;;;;;;1.85;1.63;;;;;;;12.54;79.52;101971.91;4991680;28;20454;-60
2023/06/04 01:09:28;;;;;;;1.88;1.30;;;;;;;12.52;79.87;101968.34;4991515;28;20034;-59
2023/06/04 01:11:54;;;;;;;4.28;1.77;;;;;;;12.51;78.95;101971.75;4989724;28;20026;-60
2023/06/04 01:14:19;;;;;;;2.60;1.45;;;;;;;12.45;79.35;101968.06;4991467;28;20030;-60
2023/06/04 01:16:50;;;;;;;3.60;1.60;;;;;;;12.41;80.04;101975.69;4989734;28;20118;-59
2023/06/04 01:19:32;;;;;;;3.20;1.55;;;;;;;12.36;81.25;101980.69;4990486;28;20109;-60
2023/06/04 01:22:04;;;;;;;3.33;1.60;;;;;;;12.33;81.70;101981.44;4991418;28;20034;-59
2023/06/04 01:24:36;;;;;;;3.10;1.73;;;;;;;12.29;81.74;101981.22;4990474;28;20401;-60
2023/06/04 01:27:03;;;;;;;1.98;1.20;;;;;;;12.19;82.09;101980.88;4991286;28;20026;-59
2023/06/04 01:29:29;;;;;;;3.33;2.08;;;;;;;12.11;83.27;101977.00;4990903;28;20446;-60
2023/06/04 01:31:56;;;;;;;3.05;1.52;;;;;;;12.06;83.54;101978.50;4990691;28;20034;-60
2023/06/04 01:34:21;;;;;;;3.30;1.30;;;;;;;11.97;85.07;101984.16;4990788;28;20069;-60
2023/06/04 01:36:46;;;;;;;2.38;1.45;;;;;;;11.85;86.23;101982.81;4991179;28;20034;-60
2023/06/04 01:39:12;;;;;;;2.83;1.58;;;;;;;11.82;86.48;101984.41;4990831;28;20036;-60
2023/06/04 01:41:37;;;;;;;4.60;1.73;;;;;;;11.74;87.68;101981.44;4990411;28;20451;-60
2023/06/04 01:44:02;;;;;;;1.63;1.52;;;;;;;11.71;87.56;101981.31;4990998;28;20033;-59
2023/06/04 01:46:27;;;;;;;4.53;2.03;;;;;;;11.67;88.36;101979.38;4990785;28;20089;-60
2023/06/04 01:48:53;;;;;;;2.67;1.77;;;;;;;11.63;88.36;101975.75;4990896;28;20579;-60
2023/06/04 01:51:18;;;;;;;2.58;2.00;;;;;;;11.59;89.20;101972.13;4990728;28;20030;-60
2023/06/04 01:53:43;;;;;;;1.85;1.60;;;;;;;11.55;89.68;101974.53;4990006;28;20030;-60
2023/06/04 01:56:08;;;;;;;2.22;1.73;;;;;;;11.52;89.45;101976.16;4988988;28;20541;-60
2023/06/04 01:58:34;;;;;;;3.00;1.90;;;;;;;11.52;89.29;101970.06;4990003;28;20026;-60
2023/06/04 02:01:02;;;;;;;4.10;2.10;;;;;;;11.53;89.94;101982.25;4990042;28;20030;-60
2023/06/04 02:03:28;;;;;;;2.15;1.58;;;;;;;11.51;89.43;101976.94;4990451;28;20453;-60
2023/06/04 02:05:53;;;;;;;2.75;1.90;;;;;;;11.49;89.90;101970.81;4990299;28;20062;-60
2023/06/04 02:08:20;;;;;;;2.03;1.70;;;;;;;11.47;90.35;101975.06;4989551;28;20087;-59
2023/06/04 02:10:48;;;;;;;2.35;1.65;;;;;;;11.44;90.86;101982.66;4990851;28;20405;-60
2023/06/04 02:13:14;;;;;;;2.15;1.75;;;;;;;11.40;91.65;101975.59;4989552;28;20433;-59
2023/06/04 02:15:40;;;;;;;2.55;1.65;;;;;;;11.37;90.33;101978.03;4990073;28;20231;-59
2023/06/04 02:18:17;;;;;;;4.05;1.50;;;;;;;11.31;90.92;101981.22;4990075;28;20030;-60
2023/06/04 02:20:46;;;;;;;4.18;1.70;;;;;;;11.28;92.35;101974.19;4990284;28;20432;-60
2023/06/04 02:23:12;;;;;;;2.67;2.25;;;;;;;11.26;92.00;101972.34;4989904;28;20065;-60
2023/06/04 02:25:38;;;;;;;1.85;1.65;;;;;;;11.23;92.76;101970.47;4989356;28;20466;-60
2023/06/04 02:28:03;;;;;;;4.82;2.00;;;;;;;11.22;92.56;101965.22;4990179;28;20026;-60
2023/06/04 02:30:28;;;;;;;2.88;1.83;;;;;;;11.19;93.47;101971.13;4989525;28;20073;-60
2023/06/04 02:32:54;;;;;;;3.63;1.80;;;;;;;11.15;93.33;101964.91;4990217;28;20040;-60
2023/06/04 02:35:24;;;;;;;2.85;2.10;;;;;;;11.15;94.41;101974.44;4988829;28;20042;-59
2023/06/04 02:37:50;;;;;;;5.40;1.98;;;;;;;11.11;94.74;101978.56;4989828;28;20557;-60
2023/06/04 02:40:16;;;;;;;3.95;2.08;;;;;;;11.05;94.78;101984.34;4989395;28;20032;-60
2023/06/04 02:42:41;;;;;;;1.88;1.70;;;;;;;10.99;95.30;101984.03;4978656;28;20034;-59
2023/06/04 02:45:07;;;;;;;2.85;1.90;;;;;;;10.93;95.48;101983.75;4987755;28;20026;-60
2023/06/04 02:47:32;;;;;;;3.97;1.85;;;;;;;10.88;95.82;101982.66;4989465;28;20030;-60
2023/06/04 02:49:58;;;;;;;1.80;1.70;;;;;;;10.79;96.85;101973.59;4984227;28;20022;-60
2023/06/04 02:52:25;;;;;;;2.45;1.63;;;;;;;10.71;97.40;101974.91;4981606;28;20026;-60
2023/06/04 02:54:50;;;;;;;5.03;1.85;;;;;;;10.71;97.79;101977.50;4989121;28;20041;-60
2023/06/04 02:57:16;;;;;;;2.72;1.77;;;;;;;10.68;98.08;101978.25;4989108;28;20475;-60
2023/06/04 02:59:41;;;;;;;1.95;1.67;;;;;;;10.65;99.56;101977.22;4989117;28;20085;-59
2023/06/04 03:02:06;;;;;;;2.35;1.35;;;;;;;10.59;99.51;101979.50;4989154;28;20022;-60
2023/06/04 03:04:33;;;;;;;3.55;1.60;;;;;;;10.52;100.00;101978.31;4989334;28;20505;-60
2023/06/04 03:07:00;;;;;;;3.40;2.00;;;;;;;10.51;99.62;101977.41;4976801;28;20053;-60
2023/06/04 03:09:25;;;;;;;2.22;2.00;;;;;;;10.46;99.63;101973.66;4988731;28;20073;-60
2023/06/04 03:11:51;;;;;;;3.85;1.85;;;;;;;10.38;100.00;101977.56;4988699;28;20474;-60
2023/06/04 03:14:17;;;;;;;3.05;1.65;;;;;;;10.28;100.00;101986.56;4988179;28;20053;-58
2023/06/04 03:16:44;;;;;;;2.25;2.00;;;;;;;10.19;100.00;101981.78;4987353;28;20026;-60
2023/06/04 03:19:11;;;;;;;3.40;2.00;;;;;;;10.15;100.00;101977.25;4986805;28;20087;-59
2023/06/04 03:21:39;;;;;;;3.85;1.80;;;;;;;10.12;100.00;101974.50;4986518;28;20022;-60
2023/06/04 03:24:05;;;;;;;4.03;2.40;;;;;;;10.11;100.00;101977.94;4986775;28;20153;-59
2023/06/04 03:26:30;;;;;;;2.55;1.85;;;;;;;10.11;100.00;101967.56;4986867;28;20048;-60
2023/06/04 03:28:56;;;;;;;3.38;1.60;;;;;;;10.13;100.00;101976.31;4986159;28;20117;-60
2023/06/04 03:31:21;;;;;;;4.88;1.80;;;;;;;10.14;100.00;101967.72;4988394;28;20374;-61
2023/06/04 03:33:46;;;;;;;3.15;2.00;;;;;;;10.14;100.00;101968.63;4987610;28;20030;-59
2023/06/04 03:36:12;;;;;;;2.38;1.83;;;;;;;10.18;100.00;101977.44;4988535;28;20049;-60
2023/06/04 03:38:37;;;;;;;2.80;1.73;;;;;;;10.18;100.00;101972.25;4988399;28;20506;-60
2023/06/04 03:41:02;;;;;;;3.08;1.70;;;;;;;10.17;100.00;101981.72;4988475;28;20034;-61
2023/06/04 03:43:27;;;;;;;2.53;1.63;;;;;;;10.18;100.00;101974.84;4988535;28;20030;-60
2023/06/04 03:45:53;;;;;;;2.88;1.63;;;;;;;10.14;100.00;101973.78;4988135;28;20467;-58
2023/06/04 03:48:18;;;;;;;2.80;1.70;;;;;;;10.12;100.00;101969.31;4988322;28;20085;-60
2023/06/04 03:50:45;;;;;;;2.47;1.30;;;;;;;10.09;100.00;101981.31;4988431;28;20459;-60
2023/06/04 03:53:11;;;;;;;2.47;1.60;;;;;;;10.12;100.00;101979.69;4988798;28;20033;-59
2023/06/04 03:55:36;;;;;;;2.53;1.77;;;;;;;10.08;100.00;101976.06;4987848;28;20117;-60
2023/06/04 03:58:02;;;;;;;2.97;2.13;;;;;;;10.06;100.00;101986.34;4988071;28;20026;-61
2023/06/04 04:00:28;;;;;;;3.45;1.88;;;;;;;10.04;100.00;101975.00;4987890;28;20021;-60
2023/06/04 04:02:53;;;;;;;2.92;1.65;;;;;;;10.04;100.00;101985.34;4988267;28;20038;-59
2023/06/04 04:05:19;;;;;;;3.22;1.67;;;;;;;10.04;100.00;101982.75;4988237;28;20022;-60
2023/06/04 04:07:44;;;;;;;2.53;1.67;;;;;;;10.04;100.00;101980.19;4987492;28;20389;-61
2023/06/04 04:10:10;;;;;;;2.95;1.80;;;;;;;10.03;100.00;101991.34;4987810;28;20022;-60
2023/06/04 04:12:35;;;;;;;5.10;1.75;;;;;;;10.04;100.00;101980.19;4986823;28;20026;-60
2023/06/04 04:15:02;;;;;;;2.03;1.60;;;;;;;10.05;100.00;101981.97;4987467;28;20030;-60
2023/06/04 04:17:27;;;;;;;2.78;2.03;;;;;;;10.06;100.00;101986.34;4986658;28;20030;-60
2023/06/04 04:19:52;;;;;;;5.47;1.85;;;;;;;10.07;100.00;101976.88;4987849;28;20088;-60
2023/06/04 04:22:17;;;;;;;2.28;1.83;;;;;;;10.09;100.00;101976.13;4987992;28;20458;-59
2023/06/04 04:24:43;;;;;;;2.78;1.98;;;;;;;10.13;100.00;101982.34;4986801;28;20041;-60
2023/06/04 04:27:10;;;;;;;1.90;1.70;;;;;;;10.16;100.00;101977.34;4987889;28;20026;-60
2023/06/04 04:29:36;;;;;;;2.17;1.60;;;;;;;10.22;100.00;101981.94;4987791;28;20033;-59
2023/06/04 04:32:10;;;;;;;4.68;2.20;;;;;;;10.26;100.00;101981.28;4986972;28;20022;-60
2023/06/04 04:34:37;;;;;;;2.45;1.80;;;;;;;10.31;100.00;101987.59;4987722;28;20066;-60
2023/06/04 04:37:03;;;;;;;3.83;1.95;;;;;;;10.35;100.00;101983.47;4988140;28;20022;-60
2023/06/04 04:39:28;;;;;;;4.15;2.00;;;;;;;10.41;100.00;101976.03;4987746;28;20034;-59
2023/06/04 04:41:55;;;;;;;2.80;1.67;;;;;;;10.45;100.00;101977.06;4987841;28;20033;-60
2023/06/04 04:44:20;;;;;;;2.08;1.73;;;;;;;10.54;99.96;101984.47;4987926;28;20034;-61
2023/06/04 04:46:45;;;;;;;3.28;1.88;;;;;;;10.60;99.88;101991.63;4987254;28;20080;-60
2023/06/04 04:49:11;;;;;;;2.03;1.83;;;;;;;10.67;100.00;101989.44;4985800;28;20061;-60
2023/06/04 04:51:36;;;;;;;2.35;1.80;;;;;;;10.74;97.25;101990.63;4987235;28;20023;-60
2023/06/04 04:54:02;;;;;;;2.45;1.70;;;;;;;10.81;97.28;101991.84;4985926;28;20229;-60
2023/06/04 04:56:28;;;;;;;3.30;2.00;;;;;;;10.91;96.36;101993.16;4987242;28;20189;-61
2023/06/04 04:58:54;;;;;;;3.38;1.60;;;;;;;10.99;94.66;101994.41;4975158;28;20026;-60
2023/06/04 05:01:20;;;;;;;3.35;2.45;;;;;;;11.04;93.16;101992.94;4987561;28;20058;-60
2023/06/04 05:03:45;;;;;;;3.08;2.10;;;;;;;11.12;95.59;101995.00;4993370;28;20057;-60
2023/06/04 05:06:11;;;;;;;2.95;1.98;;;;;;;11.18;96.01;101997.91;4998797;28;20056;-60
2023/06/04 05:08:36;;;;;;;5.57;2.60;;;;;;;11.23;96.45;102004.22;4996514;28;20035;-60
2023/06/04 05:11:01;;;;;;;2.13;1.92;;;;;;;11.31;95.21;101995.91;4991010;28;20034;-60
2023/06/04 05:13:27;;;;;;;4.50;2.95;;;;;;;11.38;94.63;102000.56;5000044;28;20057;-61
2023/06/04 05:15:52;;;;;;;3.30;2.80;;;;;;;11.46;94.32;102007.00;4990818;28;20023;-61
2023/06/04 05:18:20;;;;;;;4.65;2.10;;;;;;;11.57;94.64;102004.00;5002001;28;20034;-60
2023/06/04 05:20:46;;;;;;;2.72;1.95;;;;;;;11.66;93.16;102007.03;4991121;28;20389;-60
2023/06/04 05:23:12;;;;;;;3.03;2.25;;;;;;;11.72;93.61;102004.75;5000159;28;20030;-60
2023/06/04 05:25:37;;;;;;;5.28;2.88;;;;;;;11.79;91.37;102007.59;4991118;28;20026;-60
2023/06/04 05:28:03;;;;;;;2.78;2.15;;;;;;;11.85;91.19;102002.72;4998701;28;20029;-60
2023/06/04 05:30:28;;;;;;;3.85;2.40;;;;;;;11.95;92.05;102006.59;4991247;28;20102;-60
2023/06/04 05:32:53;;;;;;;3.38;2.40;;;;;;;12.06;91.72;102004.47;5002683;28;20184;-60
2023/06/04 05:35:19;;;;;;;5.22;2.88;;;;;;;12.15;89.99;101999.72;4990079;28;20372;-60
2023/06/04 05:37:45;;;;;;;3.97;2.67;;;;;;;12.23;87.72;101997.47;4994446;28;20026;-60
2023/06/04 05:40:11;;;;;;;6.18;3.00;;;;;;;12.34;89.04;101997.94;4990031;28;20054;-60
2023/06/04 05:42:36;;;;;;;2.60;2.30;;;;;;;12.43;88.11;101998.31;4994107;28;20030;-61
2023/06/04 05:45:02;;;;;;;4.20;2.78;;;;;;;12.52;87.73;102002.16;4997010;28;20044;-61
2023/06/04 05:47:31;;;;;;;2.75;2.35;;;;;;;12.61;87.57;101992.13;4996041;28;20121;-61
2023/06/04 05:49:56;;;;;;;6.68;2.85;;;;;;;12.75;87.44;101991.81;4996648;28;20034;-61
2023/06/04 05:52:22;;;;;;;3.78;2.00;;;;;;;12.88;86.07;101994.09;4992177;28;20037;-61
2023/06/04 05:54:47;;;;;;;2.88;2.05;;;;;;;13.01;85.22;101991.97;5002154;28;20033;-61
2023/06/04 05:57:12;;;;;;;3.13;2.30;;;;;;;13.13;84.68;101989.00;4998397;28;20026;-60
2023/06/04 05:59:37;;;;;;;5.85;2.50;;;;;;;13.25;83.41;101999.00;5003165;28;20058;-60
2023/06/04 06:02:03;;;;;;;4.25;2.72;;;;;;;13.40;83.98;102001.34;5000259;28;20109;-60
2023/06/04 06:04:28;;;;;;;3.88;2.67;;;;;;;13.55;83.30;101999.34;5000305;28;20172;-60
2023/06/04 06:06:55;;;;;;;2.90;2.42;;;;;;;13.69;81.18;101998.97;4987494;28;20029;-60
2023/06/04 06:09:20;;;;;;;2.72;2.10;;;;;;;13.85;80.87;102012.59;5003885;28;20634;-59
2023/06/04 06:11:45;;;;;;;5.32;2.95;;;;;;;13.96;80.99;102012.97;4988707;28;20069;-61
2023/06/04 06:14:10;;;;;;;2.78;2.58;;;;;;;14.07;79.87;102000.34;5004223;28;20478;-61
2023/06/04 06:16:36;;;;;;;4.50;2.88;;;;;;;14.14;77.05;102007.53;4989149;28;20026;-61
2023/06/04 06:19:01;;;;;;;5.63;2.45;;;;;;;14.28;76.76;102015.88;4995833;28;20140;-61
2023/06/04 06:21:27;;;;;;;3.05;2.38;;;;;;;14.40;75.43;102008.47;4990956;28;20026;-61
2023/06/04 06:23:53;;;;;;;2.55;2.20;;;;;;;14.54;75.49;102005.44;5004053;28;20744;-61
2023/06/04 06:26:19;;;;;;;2.72;2.53;;;;;;;14.71;75.53;102012.94;4992756;28;20382;-61
2023/06/04 06:28:44;;;;;;;2.63;2.42;;;;;;;14.92;75.40;102012.81;4994738;28;20034;-61
2023/06/04 06:31:09;;;;;;;6.43;2.70;;;;;;;15.00;72.75;102016.53;4994131;28;20099;-60
2023/06/04 06:33:36;;;;;;;2.20;2.00;;;;;;;15.17;72.46;102015.31;4998082;28;20096;-61
2023/06/04 06:36:02;;;;;;;6.47;2.38;;;;;;;15.30;71.50;102020.09;4995554;28;20049;-61
2023/06/04 06:38:27;;;;;;;2.90;2.10;;;;;;;15.50;72.26;102022.44;4998656;28;20026;-61
2023/06/04 06:40:52;;;;;;;3.70;2.45;;;;;;;15.70;72.13;102015.16;4995418;28;20501;-61
2023/06/04 06:43:18;;;;;;;3.88;2.30;;;;;;;15.87;71.50;102022.63;4999350;28;20037;-61
2023/06/04 06:45:43;;;;;;;3.03;2.22;;;;;;;16.08;71.63;102024.13;4995893;28;20032;-61
2023/06/04 06:48:08;;;;;;;2.65;2.03;;;;;;;16.28;69.61;102029.03;4992024;28;20301;-61
2023/06/04 06:50:35;;;;;;;2.80;2.05;;;;;;;16.46;67.52;102025.13;4995450;28;20033;-61
2023/06/04 06:53:01;;;;;;;3.30;2.53;;;;;;;16.61;66.09;102027.22;4989446;28;20038;-61
2023/06/04 06:55:27;;;;;;;3.03;2.08;;;;;;;16.78;66.19;102025.06;4996696;28;20046;-59
2023/06/04 06:57:52;;;;;;;2.90;2.13;;;;;;;16.89;62.78;102028.81;4992451;28;20030;-61
2023/06/04 07:00:18;;;;;;;3.05;2.10;;;;;;;17.02;63.00;102035.25;4997515;28;20501;-61
2023/06/04 07:02:43;;;;;;;4.07;2.40;;;;;;;17.20;62.69;102026.09;4993765;28;20033;-61
2023/06/04 07:05:09;;;;;;;2.60;2.40;;;;;;;17.39;62.09;102037.88;4998369;28;20026;-60
2023/06/04 07:07:34;;;;;;;3.67;2.13;;;;;;;17.57;60.98;102033.91;4994979;28;20142;-61
2023/06/04 07:09:59;;;;;;;2.72;2.53;;;;;;;17.72;58.59;102035.94;5002022;28;20109;-61
2023/06/04 07:12:25;;;;;;;3.72;2.70;;;;;;;17.90;59.13;102045.03;4995599;28;20057;-61
2023/06/04 07:14:50;;;;;;;2.50;2.30;;;;;;;18.06;58.38;102042.75;5001430;28;20164;-61
2023/06/04 07:17:15;;;;;;;4.43;2.55;;;;;;;18.20;56.33;102043.94;4996343;28;20026;-61
2023/06/04 07:19:40;;;;;;;4.05;2.78;;;;;;;18.34;55.65;102038.06;5002074;28;20053;-61
2023/06/04 07:22:06;;;;;;;2.63;2.42;;;;;;;18.50;54.23;102041.84;4989512;28;20443;-61
2023/06/04 07:24:31;;;;;;;2.13;1.92;;;;;;;18.62;51.73;102043.81;5000704;28;20088;-61
2023/06/04 07:26:56;;;;;;;2.75;2.50;;;;;;;18.62;50.58;102042.94;4990744;28;20033;-61
2023/06/04 07:29:22;;;;;;;2.60;2.20;;;;;;;18.74;51.98;102032.66;4990805;28;20026;-61
2023/06/04 07:31:47;;;;;;;4.20;2.33;;;;;;;18.89;52.62;102026.75;4992164;28;20040;-62
2023/06/04 07:34:13;;;;;;;3.80;2.13;;;;;;;19.07;48.95;102036.66;4991355;28;20019;-61
2023/06/04 07:36:38;;;;;;;3.25;2.20;;;;;;;19.16;48.24;102038.56;4991918;28;20046;-61
2023/06/04 07:39:06;;;;;;;3.25;2.17;;;;;;;19.16;47.06;102041.19;4997350;28;20018;-61
2023/06/04 07:41:31;;;;;;;3.78;1.88;;;;;;;19.15;47.10;102042.06;4992365;28;20096;-62
2023/06/04 07:43:56;;;;;;;3.78;2.10;;;;;;;19.19;47.16;102041.25;4991419;28;20407;-61
2023/06/04 07:46:22;;;;;;;2.17;1.85;;;;;;;19.32;47.19;102038.78;4992211;28;20032;-61
2023/06/04 07:48:47;;;;;;;2.72;1.92;;;;;;;19.43;46.73;102042.47;4985960;28;20045;-62
2023/06/04 07:51:13;;;;;;;3.65;2.40;;;;;;;19.51;45.27;102053.09;4994282;28;20036;-62
2023/06/04 07:53:39;;;;;;;2.30;1.80;;;;;;;19.52;44.22;102041.72;4997603;28;20045;-60
2023/06/04 07:56:05;;;;;;;2.75;2.00;;;;;;;19.62;43.34;102049.72;4999383;28;20048;-61
2023/06/04 07:58:31;;;;;;;3.20;2.05;;;;;;;19.78;42.72;102037.66;4987593;28;20066;-62
2023/06/04 08:00:56;;;;;;;2.00;1.80;;;;;;;19.96;46.07;102039.63;5000015;28;20084;-61
2023/06/04 08:03:22;;;;;;;2.53;2.00;;;;;;;20.13;45.33;102037.22;4991333;28;20033;-61
2023/06/04 08:05:47;;;;;;;2.47;1.52;;;;;;;20.29;45.28;102045.28;4987990;28;20029;-61
2023/06/04 08:08:12;;;;;;;3.67;1.65;;;;;;;20.44;42.84;102041.03;4987187;28;20022;-62
2023/06/04 08:10:41;;;;;;;2.20;1.70;;;;;;;20.63;42.11;102040.31;4983703;28;20023;-61
2023/06/04 08:13:06;;;;;;;3.15;1.92;;;;;;;20.81;43.98;102035.22;4985212;28;20027;-61
2023/06/04 08:15:31;;;;;;;2.10;1.90;;;;;;;20.92;42.27;102038.81;4987923;28;20505;-61
2023/06/04 08:17:57;;;;;;;1.60;1.50;;;;;;;20.97;40.01;102033.63;4987948;28;20037;-61
2023/06/04 08:20:23;;;;;;;1.45;1.10;;;;;;;21.17;39.53;102040.78;4985793;28;20032;-61
2023/06/04 08:22:48;;;;;;;1.55;1.45;;;;;;;21.29;38.58;102043.50;4985709;28;20517;-61
2023/06/04 08:25:14;;;;;;;2.40;1.48;;;;;;;21.39;38.44;102046.19;4985803;28;20018;-62
2023/06/04 08:27:39;;;;;;;3.10;1.50;;;;;;;21.43;37.27;102040.03;4986553;28;20046;-61
2023/06/04 08:30:06;;;;;;;1.65;1.55;;;;;;;21.59;39.55;102049.81;4986026;28;20466;-61
2023/06/04 08:32:31;;;;;;;2.70;1.42;;;;;;;21.64;37.24;102046.31;4986293;28;20041;-62
2023/06/04 08:34:56;;;;;;;3.05;1.55;;;;;;;21.80;38.50;102047.28;4985988;28;20274;-62
2023/06/04 08:37:24;;;;;;;2.15;1.02;;;;;;;21.95;37.23;102039.44;4987678;28;20111;-60
2023/06/04 08:39:49;;;;;;;3.17;1.65;;;;;;;22.10;36.29;102043.00;4987667;28;20482;-62
2023/06/04 08:42:22;;;;;;;1.00;0.90;;;;;;;22.09;35.35;102040.34;4987567;28;20377;-61
2023/06/04 08:44:54;;;;;;;2.95;1.27;;;;;;;22.21;35.34;102047.41;4988215;28;20069;-61
2023/06/04 08:47:20;;;;;;;1.30;1.08;;;;;;;22.35;35.03;102042.16;4988269;28;20080;-62
2023/06/04 08:49:50;;;;;;;2.70;1.10;;;;;;;22.42;35.07;102044.81;4988205;28;20014;-62
2023/06/04 08:52:15;;;;;;;1.08;0.88;;;;;;;22.45;32.13;102036.00;4987569;28;20578;-61
2023/06/04 08:54:43;;;;;;;1.73;1.05;;;;;;;22.39;33.53;102054.47;4988501;28;20113;-61
2023/06/04 08:57:09;;;;;;;1.20;0.95;;;;;;;22.45;32.10;102051.84;4988048;28;20029;-62
2023/06/04 08:59:35;;;;;;;2.10;1.10;;;;;;;22.57;33.54;102044.81;4987306;28;20038;-62
2023/06/04 09:02:01;;;;;;;1.45;1.08;;;;;;;22.71;32.85;102061.59;4987505;28;20101;-62
2023/06/04 09:04:28;;;;;;;1.83;1.10;;;;;;;22.61;30.96;102057.16;4987813;28;20045;-61
2023/06/04 09:06:54;;;;;;;1.30;0.88;;;;;;;22.70;32.26;102057.19;4987488;28;20022;-62
2023/06/04 09:09:21;;;;;;;1.80;0.80;;;;;;;22.90;32.47;102046.59;4987953;28;20116;-62
2023/06/04 09:11:55;;;;;;;1.73;1.00;;;;;;;22.88;32.05;102053.66;4986982;28;20482;-62
2023/06/04 09:14:21;;;;;;;2.42;1.27;;;;;;;22.97;32.30;102055.41;4987542;28;20150;-62
2023/06/04 09:16:58;;;;;;;2.05;0.82;;;;;;;23.15;31.73;102066.84;4987882;28;20097;-61
2023/06/04 09:19:24;;;;;;;4.72;1.15;;;;;;;23.07;29.99;102056.28;4991143;28;20057;-62
2023/06/04 09:21:51;;;;;;;2.38;0.90;;;;;;;23.03;30.50;102058.03;4991613;28;20022;-61
2023/06/04 09:24:18;;;;;;;1.55;0.73;;;;;;;23.24;32.02;102053.59;4990720;28;20046;-62
2023/06/04 09:26:43;;;;;;;2.55;1.00;;;;;;;23.41;32.10;102057.97;4991226;28;20114;-62
2023/06/04 09:29:09;;;;;;;1.45;0.98;;;;;;;23.61;31.77;102057.06;4991399;28;20022;-62
2023/06/04 09:31:38;;;;;;;1.05;0.80;;;;;;;23.70;31.28;102053.50;4991203;28;20104;-61
2023/06/04 09:34:03;;;;;;;2.15;0.90;;;;;;;23.57;30.37;102052.66;4978895;28;20054;-61
2023/06/04 09:36:35;;;;;;;1.30;0.88;;;;;;;23.67;31.99;102057.06;4990098;28;20085;-62
2023/06/04 09:39:14;;;;;;;1.63;0.65;;;;;;;23.90;31.88;102053.41;4991180;28;20045;-62
2023/06/04 09:41:39;;;;;;;0.75;0.70;;;;;;;23.78;29.41;102056.13;4990843;28;20097;-61
2023/06/04 09:44:05;;;;;;;1.35;0.90;;;;;;;23.79;30.28;102056.09;4991231;28;20030;-62
2023/06/04 09:46:31;;;;;;;1.80;0.70;;;;;;;23.96;30.88;102056.00;4990419;28;20374;-62
2023/06/04 09:49:03;;;;;;;1.73;0.98;;;;;;;23.81;29.64;102053.44;4991114;28;20037;-62
2023/06/04 09:51:30;;;;;;;2.35;1.02;;;;;;;23.85;30.32;102048.13;4990184;28;20172;-61
2023/06/04 09:53:57;;;;;;;1.42;0.80;;;;;;;24.02;31.67;102054.22;4990518;28;20213;-62
2023/06/04 09:56:23;;;;;;;1.13;0.70;;;;;;;24.09;30.38;102045.34;4990397;28;20034;-60
2023/06/04 09:58:49;;;;;;;1.00;0.70;;;;;;;24.15;30.10;102040.03;4990161;28;20508;-62
2023/06/04 10:01:15;;;;;;;2.40;0.70;;;;;;;24.27;30.48;102043.53;4990280;28;20498;-62
2023/06/04 10:03:45;;;;;;;1.88;0.75;;;;;;;24.30;29.08;102048.81;4990804;28;20053;-61
2023/06/04 10:06:14;;;;;;;1.65;0.80;;;;;;;24.33;30.07;102038.19;4988676;28;20022;-61
2023/06/04 10:08:42;;;;;;;4.65;4.28;;;;;;;24.12;27.95;102042.72;4990232;28;20026;-62
2023/06/04 10:11:10;;;;;;;1.90;1.30;;;;;;;24.12;29.79;102045.34;4990149;28;20058;-62
2023/06/04 10:13:47;;;;;;;3.72;0.70;;;;;;;24.32;29.39;102037.28;4990146;28;20022;-62
2023/06/04 10:16:13;;;;;;;1.67;0.50;;;;;;;24.48;27.43;102036.31;4990337;28;20546;-62
2023/06/04 10:18:39;;;;;;;1.20;0.70;;;;;;;24.38;28.79;102036.38;4990021;28;20030;-62
2023/06/04 10:21:06;;;;;;;0.70;0.70;;;;;;;24.40;28.40;102050.50;4990075;28;20026;-62
2023/06/04 10:23:31;;;;;;;2.13;0.77;;;;;;;24.35;28.66;102044.34;4989704;28;20084;-62
2023/06/04 10:25:57;;;;;;;2.38;0.90;;;;;;;24.57;31.17;102046.84;4990580;28;20466;-62
2023/06/04 10:28:23;;;;;;;2.13;1.20;;;;;;;24.66;29.71;102049.41;4989970;28;20522;-62
2023/06/04 10:30:52;;;;;;;4.63;1.83;;;;;;;24.70;28.02;102048.50;4989199;28;20038;-61
2023/06/04 10:33:24;;;;;;;7.32;3.03;;;;;;;24.60;27.59;102046.81;4989935;28;20070;-62
2023/06/04 10:35:50;;;;;;;5.95;2.45;;;;;;;24.50;28.39;102040.69;4989860;28;20133;-61
2023/06/04 10:38:16;;;;;;;1.85;1.10;;;;;;;24.60;30.07;102038.88;4988140;28;20043;-62
2023/06/04 10:40:42;;;;;;;1.98;1.17;;;;;;;24.61;29.33;102037.97;4990040;28;20037;-61
2023/06/04 10:43:12;;;;;;;3.25;1.25;;;;;;;24.74;28.95;102033.44;4988733;28;20041;-62
2023/06/04 10:45:38;;;;;;;2.30;1.10;;;;;;;24.78;29.44;102044.91;4989519;28;20413;-62
2023/06/04 10:48:06;;;;;;;2.70;1.50;;;;;;;24.73;29.23;102031.69;4989073;28;20041;-62
2023/06/04 10:50:33;;;;;;;4.07;1.40;;;;;;;24.77;29.26;102037.84;4989734;28;20057;-62
2023/06/04 10:53:02;;;;;;;1.05;0.93;;;;;;;24.83;29.13;102033.38;4989332;28;20043;-62
2023/06/04 10:55:28;;;;;;;1.00;0.77;;;;;;;24.96;31.75;102035.03;4989059;28;20026;-62
2023/06/04 10:57:58;;;;;;;2.45;0.80;;;;;;;25.04;32.11;102035.88;4989200;28;20137;-60
2023/06/04 11:00:36;;;;;;;1.25;0.70;;;;;;;25.12;29.88;102044.59;4989394;28;20053;-62
2023/06/04 11:03:04;;;;;;;1.77;1.45;;;;;;;25.12;28.27;102044.59;4989254;28;20129;-62
2023/06/04 11:05:37;;;;;;;2.13;1.10;;;;;;;25.12;29.19;102044.59;4989198;28;20052;-62
2023/06/04 11:08:04;;;;;;;2.90;1.70;;;;;;;25.09;27.31;102041.09;4989434;28;20118;-62
2023/06/04 11:10:35;;;;;;;2.42;1.00;;;;;;;25.02;26.62;102038.50;4989900;28;20168;-62
2023/06/04 11:13:00;;;;;;;2.55;1.08;;;;;;;25.10;27.88;102030.47;4988716;28;20030;-62
2023/06/04 11:15:25;;;;;;;4.93;2.13;;;;;;;25.17;26.98;102037.47;4989398;28;20026;-62
2023/06/04 11:17:58;;;;;;;2.67;1.92;;;;;;;25.15;27.11;102039.25;4988986;28;20114;-62
2023/06/04 11:20:23;;;;;;;3.03;1.20;;;;;;;25.20;27.52;102030.38;4988839;28;20026;-62